Canton, MN (55922)

2:26 PM CDT on July 06, 2015 (GMT -0500)
Preston | | Change Station
CLOSE
Current Station
Personal Weather Station
Location: Preston, MN
Elevation: 990 ft
Nearby Weather Stations

Elev 990 ft 43.68 °N, 92.08 °W | Updated 22 seconds ago

Mostly Cloudy
Mostly Cloudy
75.3 °F
Feels Like 75 °F
N
3.0
Wind Variable Wind from SSW
Gusts 9.0 mph

Today
High -- | Low -- °F
--% Chance of Precip.
Yesterday
High -- | Low -- °F
Precip. -- in
5:33 AM 8:51 PM
Waning Gibbous, 73% visible
Pressure 29.84 in
Visibility 10.0 miles
Clouds Scattered Clouds 2000 ft
Mostly Cloudy 4800 ft
Overcast 6000 ft
Heat Index 75 °F
Dew Point 70 °F
Humidity 85%
Rainfall 0.30 in
Snow Depth Not available.
UV 3 out of 12
Pollen .60 out of 12
Air Quality Not available.
Flu Activity Not available.
METAR KFKA 061914Z AUTO 21007KT 10SM SCT020 BKN048 OVC060 23/20 A2984 RMK AO2 T02340196

More Conditions Fewer Conditions

Pressure 29.84 in
Visibility 10.0 miles
Clouds Scattered Clouds 2000 ft
Mostly Cloudy 4800 ft
Overcast 6000 ft
Heat Index 75 °F
Dew Point 70 °F
Humidity 85%
Rainfall 0.30 in
Snow Depth Not available.
UV 3 out of 12
Pollen .60 out of 12
Air Quality Not available.
Flu Activity Not available.
METAR KFKA 061914Z AUTO 21007KT 10SM SCT020 BKN048 OVC060 23/20 A2984 RMK AO2 T02340196

More Conditions Fewer Conditions

10-Day Weather Forecast

×

Almanac

Astronomy

Jul. 06, 2015 Rise Set
Actual Time
Civil Twilight
Nautical Twilight
Astronomical Twilight
Moon
Length of Visible Light
Length of Day
Tomorrow will be .
, % of the Moon is Illuminated

Today's Extremes

State Highs State Lows

Community

WunderPhotos

Upload Photos

1,835,621 photos uploaded!

WunderBlogs® & News

Nearby

Air Quality

  Air Quality AQ Index Pollutant
Not available.

Snow Depth

Station Depth Elevation

Earthquake Activity

City Distance Mag. Time & Date
Minimum magnitude displayed is 2.5.

Coastal Water Temperatures

Place Temperature

Stations

Nearby Weather Stations

Station Location Temp. Windchill Dew Point Humidity Wind Precip. Elev Updated Type